| time (UTC) | temp F | wind direction | speed MPH | gust MPH | rain 1hr in | rain 24hr in | rain mn in | humidity % | barometer mb |
| 20260831191542 | 100 | 129 | 10.0 | 17.0 | 0.00 | 0.00 | 0.00 | 41 | 1012.9 |
| 20260831190101 | 99 | 95 | 11.0 | 21.0 | 0.00 | 0.00 | 0.00 | 42 | 1013.0 |
| 20260831184555 | 98 | 131 | 12.0 | 20.0 | 0.00 | 0.00 | 0.00 | 43 | 1013.2 |
| 20260831183058 | 98 | 117 | 8.0 | 16.0 | 0.00 | 0.00 | 0.00 | 45 | 1013.6 |
| 20260831181547 | 98 | 126 | 9.0 | 22.0 | 0.00 | 0.00 | 0.00 | 46 | 1013.8 |
| 20260831180043 | 97 | 110 | 8.0 | 20.0 | 0.00 | 0.00 | 0.00 | 48 | 1014.0 |
| 20260831174548 | 96 | 131 | 10.0 | 19.0 | 0.00 | 0.00 | 0.00 | 51 | 1014.2 |
| 20260831173042 | 95 | 139 | 9.0 | 18.0 | 0.00 | 0.00 | 0.00 | 51 | 1014.3 |
| 20260831171552 | 94 | 158 | 12.0 | 20.0 | 0.00 | 0.00 | 0.00 | 53 | 1014.5 |
| 20260831170052 | 93 | 144 | 7.0 | 17.0 | 0.00 | 0.00 | 0.00 | 55 | 1014.4 |
| 20260831164559 | 92 | 131 | 8.0 | 19.0 | 0.00 | 0.00 | 0.00 | 57 | 1014.4 |
| 20260831163045 | 92 | 142 | 7.0 | 17.0 | 0.00 | 0.00 | 0.00 | 59 | 1014.6 |
| 20260831161554 | 91 | 112 | 10.0 | 17.0 | 0.00 | 0.00 | 0.00 | 59 | 1014.7 |
| 20260831160050 | 90 | 134 | 7.0 | 16.0 | 0.00 | 0.00 | 0.00 | 63 | 1014.8 |
| 20260831154619 | 89 | 360 | 10.0 | 17.0 | 0.00 | 0.00 | 0.00 | 65 | 1014.7 |
| 20260831153048 | 88 | 132 | 11.0 | 17.0 | 0.00 | 0.00 | 0.00 | 66 | 1014.7 |
| 20260831151542 | 87 | 134 | 8.0 | 16.0 | 0.00 | 0.00 | 0.00 | 69 | 1014.8 |
| 20260831150051 | 86 | 127 | 10.0 | 15.0 | 0.00 | 0.00 | 0.00 | 72 | 1014.7 |
| 20260831144551 | 85 | 106 | 8.0 | 14.0 | 0.00 | 0.00 | 0.00 | 73 | 1014.8 |
| 20260831143043 | 85 | 140 | 9.0 | 15.0 | 0.00 | 0.00 | 0.00 | 76 | 1014.6 |
| 20260831141544 | 84 | 109 | 8.0 | 15.0 | 0.00 | 0.00 | 0.00 | 78 | 1014.7 |
| 20260831140043 | 83 | 137 | 9.0 | 13.0 | 0.00 | 0.00 | 0.00 | 81 | 1014.5 |
| 20260831134543 | 82 | 127 | 7.0 | 12.0 | 0.00 | 0.00 | 0.00 | 82 | 1014.4 |
| 20260831133053 | 82 | 131 | 4.0 | 10.0 | 0.00 | 0.00 | 0.00 | 83 | 1014.1 |
| 20260831131547 | 82 | 111 | 4.0 | 10.0 | 0.00 | 0.00 | 0.00 | 83 | 1014.1 |
| 20260831130049 | 81 | 134 | 4.0 | 9.0 | 0.00 | 0.00 | 0.00 | 84 | 1014.1 |
| 20260831124549 | 81 | 140 | 3.0 | 10.0 | 0.00 | 0.00 | 0.00 | 83 | 1013.8 |
| 20260831123041 | 81 | 132 | 4.0 | 9.0 | 0.00 | 0.00 | 0.00 | 83 | 1013.6 |
| 20260831121550 | 82 | 157 | 5.0 | 10.0 | 0.00 | 0.00 | 0.00 | 82 | 1013.4 |
| 20260831120054 | 82 | 131 | 5.0 | 10.0 | 0.00 | 0.00 | 0.00 | 82 | 1013.3 |
| 20260831114544 | 82 | 127 | 7.0 | 12.0 | 0.00 | 0.00 | 0.00 | 82 | 1013.1 |
| 20260831113059 | 82 | 145 | 7.0 | 15.0 | 0.00 | 0.00 | 0.00 | 82 | 1013.1 |
| 20260831111548 | 82 | 141 | 7.0 | 14.0 | 0.00 | 0.00 | 0.00 | 82 | 1013.0 |
| 20260831110046 | 82 | 140 | 8.0 | 14.0 | 0.00 | 0.00 | 0.00 | 82 | 1013.2 |
| 20260831104544 | 82 | 136 | 7.0 | 13.0 | 0.00 | 0.00 | 0.00 | 82 | 1013.1 |
| 20260831103049 | 82 | 148 | 7.0 | 12.0 | 0.00 | 0.00 | 0.00 | 82 | 1013.1 |
| 20260831101546 | 83 | 138 | 6.0 | 14.0 | 0.00 | 0.00 | 0.00 | 82 | 1013.1 |
| 20260831100047 | 83 | 142 | 9.0 | 16.0 | 0.00 | 0.00 | 0.00 | 81 | 1013.2 |
| 20260831094553 | 83 | 136 | 8.0 | 15.0 | 0.00 | 0.00 | 0.00 | 81 | 1013.3 |
| 20260831093050 | 83 | 159 | 8.0 | 14.0 | 0.00 | 0.00 | 0.00 | 81 | 1013.3 |
| 20260831091548 | 83 | 142 | 9.0 | 16.0 | 0.00 | 0.00 | 0.00 | 81 | 1013.2 |
| 20260831090048 | 83 | 124 | 12.0 | 18.0 | 0.00 | 0.00 | 0.00 | 80 | 1013.1 |
| 20260831084543 | 83 | 157 | 9.0 | 17.0 | 0.00 | 0.00 | 0.00 | 80 | 1013.2 |
| 20260831083044 | 84 | 123 | 9.0 | 16.0 | 0.00 | 0.00 | 0.00 | 80 | 1013.3 |
| 20260831081549 | 84 | 171 | 12.0 | 21.0 | 0.00 | 0.00 | 0.00 | 80 | 1013.4 |
| 20260831080044 | 84 | 138 | 10.0 | 20.0 | 0.00 | 0.00 | 0.00 | 79 | 1013.4 |
| 20260831074543 | 84 | 125 | 8.0 | 17.0 | 0.00 | 0.00 | 0.00 | 80 | 1013.6 |
| 20260831073043 | 84 | 156 | 7.0 | 16.0 | 0.00 | 0.00 | 0.00 | 80 | 1014.0 |
| 20260831071554 | 84 | 127 | 8.0 | 17.0 | 0.00 | 0.00 | 0.00 | 80 | 1014.0 |
| 20260831070045 | 84 | 142 | 7.0 | 14.0 | 0.00 | 0.00 | 0.00 | 80 | 1014.2 |
| 20260831064544 | 84 | 142 | 6.0 | 13.0 | 0.00 | 0.00 | 0.00 | 80 | 1014.3 |
| 20260831063042 | 84 | 132 | 8.0 | 16.0 | 0.00 | 0.00 | 0.00 | 79 | 1014.3 |
| 20260831061554 | 84 | 115 | 10.0 | 16.0 | 0.00 | 0.00 | 0.00 | 79 | 1014.3 |
| 20260831060049 | 84 | 162 | 8.0 | 17.0 | 0.00 | 0.00 | 0.00 | 80 | 1014.4 |
| 20260831054543 | 84 | 144 | 11.0 | 19.0 | 0.00 | 0.00 | 0.00 | 80 | 1014.3 |
| 20260831053042 | 85 | 142 | 10.0 | 17.0 | 0.00 | 0.00 | 0.00 | 80 | 1014.4 |
| 20260831051556 | 85 | 138 | 11.0 | 20.0 | 0.00 | 0.00 | 0.00 | 80 | 1014.4 |
| 20260831050045 | 85 | 130 | 10.0 | 21.0 | 0.00 | 0.00 | 0.00 | 79 | 1014.3 |
| 20260831044542 | 85 | 146 | 13.0 | 25.0 | 0.00 | 0.00 | 0.00 | 78 | 1014.3 |
| 20260831043042 | 85 | 140 | 9.0 | 20.0 | 0.00 | 0.00 | 0.00 | 76 | 1014.3 |
| 20260831041544 | 85 | 132 | 10.0 | 18.0 | 0.00 | 0.00 | 0.00 | 75 | 1014.0 |
| 20260831040043 | 85 | 139 | 8.0 | 18.0 | 0.00 | 0.00 | 0.00 | 74 | 1013.9 |
| 20260831034548 | 86 | 132 | 6.0 | 19.0 | 0.00 | 0.00 | 0.00 | 74 | 1013.8 |
| 20260831033044 | 86 | 130 | 13.0 | 24.0 | 0.00 | 0.00 | 0.00 | 73 | 1013.7 |
| 20260831031548 | 87 | 126 | 12.0 | 19.0 | 0.00 | 0.00 | 0.00 | 70 | 1013.5 |
| 20260831030045 | 87 | 76 | 7.0 | 16.0 | 0.00 | 0.00 | 0.00 | 69 | 1013.1 |
| 20260831024552 | 88 | 145 | 12.0 | 22.0 | 0.00 | 0.00 | 0.00 | 68 | 1012.8 |
| 20260831023052 | 88 | 140 | 11.0 | 23.0 | 0.00 | 0.00 | 0.00 | 67 | 1012.5 |
| 20260831021548 | 89 | 142 | 15.0 | 28.0 | 0.00 | 0.00 | 0.00 | 65 | 1012.4 |
| 20260831020050 | 89 | 115 | 13.0 | 25.0 | 0.00 | 0.00 | 0.00 | 65 | 1012.2 |
| 20260831014543 | 90 | 127 | 11.0 | 19.0 | 0.00 | 0.00 | 0.00 | 63 | 1011.9 |
| 20260831013106 | 91 | 114 | 13.0 | 27.0 | 0.00 | 0.00 | 0.00 | 61 | 1011.8 |
| 20260831011547 | 92 | 107 | 12.0 | 23.0 | 0.00 | 0.00 | 0.00 | 58 | 1011.9 |
| 20260831010056 | 93 | 128 | 14.0 | 24.0 | 0.00 | 0.00 | 0.00 | 57 | 1011.8 |
| 20260831004542 | 93 | 139 | 12.0 | 24.0 | 0.00 | 0.00 | 0.00 | 54 | 1011.5 |
| 20260831003043 | 94 | 158 | 12.0 | 24.0 | 0.00 | 0.00 | 0.00 | 52 | 1011.3 |
| 20260831001541 | 95 | 113 | 14.0 | 21.0 | 0.00 | 0.00 | 0.00 | 50 | 1011.0 |
| 20260831000044 | 96 | 159 | 13.0 | 23.0 | 0.00 | 0.00 | 0.00 | 50 | 1010.9 |
| 20260830234547 | 97 | 110 | 12.0 | 20.0 | 0.00 | 0.00 | 0.00 | 50 | 1010.8 |
| 20260830233055 | 97 | 165 | 11.0 | 18.0 | 0.00 | 0.00 | 0.00 | 49 | 1010.7 |
| 20260830231554 | 98 | 117 | 11.0 | 19.0 | 0.00 | 0.00 | 0.00 | 47 | 1010.7 |
| 20260830230051 | 99 | 92 | 7.0 | 24.0 | 0.00 | 0.00 | 0.00 | 47 | 1010.6 |
| 20260830224544 | 100 | 127 | 12.0 | 18.0 | 0.00 | 0.00 | 0.00 | 43 | 1010.4 |
| 20260830223110 | 100 | 131 | 10.0 | 20.0 | 0.00 | 0.00 | 0.00 | 43 | 1010.6 |
| 20260830221552 | 100 | 106 | 11.0 | 18.0 | 0.00 | 0.00 | 0.00 | 43 | 1010.4 |
| 20260830220052 | 100 | 126 | 10.0 | 19.0 | 0.00 | 0.00 | 0.00 | 43 | 1010.2 |
| 20260830214553 | 102 | 126 | 4.0 | 14.0 | 0.00 | 0.00 | 0.00 | 42 | 1010.3 |
| 20260830213053 | 102 | 136 | 5.0 | 16.0 | 0.00 | 0.00 | 0.00 | 42 | 1010.6 |
| 20260830211550 | 103 | 87 | 3.0 | 9.0 | 0.00 | 0.00 | 0.00 | 40 | 1010.7 |
| 20260830210054 | 102 | 131 | 7.0 | 18.0 | 0.00 | 0.00 | 0.00 | 40 | 1011.0 |
| 20260830204554 | 102 | 150 | 3.0 | 16.0 | 0.00 | 0.00 | 0.00 | 39 | 1011.3 |
| 20260830203043 | 101 | 118 | 7.0 | 15.0 | 0.00 | 0.00 | 0.00 | 41 | 1011.7 |
| 20260830201542 | 100 | 144 | 7.0 | 20.0 | 0.00 | 0.00 | 0.00 | 40 | 1012.0 |
| 20260830200052 | 101 | 132 | 9.0 | 15.0 | 0.00 | 0.00 | 0.00 | 40 | 1012.1 |
| 20260830194550 | 100 | 123 | 6.0 | 14.0 | 0.00 | 0.00 | 0.00 | 40 | 1012.4 |
| 20260830193044 | 100 | 130 | 7.0 | 21.0 | 0.00 | 0.00 | 0.00 | 41 | 1012.8 |